sensor_id;sensor_type;location;lat;lon;timestamp;temperature;humidity
4687;DHT22;2357;47.316;-1.348;2023-05-15T00:00:40;15.70;99.90
4687;DHT22;2357;47.316;-1.348;2023-05-15T00:03:06;15.90;99.90
4687;DHT22;2357;47.316;-1.348;2023-05-15T00:05:32;15.80;99.90
4687;DHT22;2357;47.316;-1.348;2023-05-15T00:07:57;15.80;99.90
4687;DHT22;2357;47.316;-1.348;2023-05-15T00:10:23;15.80;99.90
4687;DHT22;2357;47.316;-1.348;2023-05-15T00:12:49;15.70;99.90
4687;DHT22;2357;47.316;-1.348;2023-05-15T00:15:14;15.70;99.90
4687;DHT22;2357;47.316;-1.348;2023-05-15T00:17:40;15.70;99.90
4687;DHT22;2357;47.316;-1.348;2023-05-15T00:20:06;15.70;99.90
4687;DHT22;2357;47.316;-1.348;2023-05-15T00:22:34;15.80;99.90
4687;DHT22;2357;47.316;-1.348;2023-05-15T00:24:59;15.80;99.90
4687;DHT22;2357;47.316;-1.348;2023-05-15T00:27:25;15.70;99.90
4687;DHT22;2357;47.316;-1.348;2023-05-15T00:29:52;15.70;99.90
4687;DHT22;2357;47.316;-1.348;2023-05-15T00:32:17;15.70;99.90
4687;DHT22;2357;47.316;-1.348;2023-05-15T00:34:43;15.50;99.90
4687;DHT22;2357;47.316;-1.348;2023-05-15T00:37:09;15.50;99.90
4687;DHT22;2357;47.316;-1.348;2023-05-15T00:39:35;15.50;99.90
4687;DHT22;2357;47.316;-1.348;2023-05-15T00:42:02;15.50;99.90
4687;DHT22;2357;47.316;-1.348;2023-05-15T00:44:28;15.40;99.90
4687;DHT22;2357;47.316;-1.348;2023-05-15T00:46:56;15.40;99.90
4687;DHT22;2357;47.316;-1.348;2023-05-15T00:49:22;15.30;99.90
4687;DHT22;2357;47.316;-1.348;2023-05-15T00:51:49;15.20;99.90
4687;DHT22;2357;47.316;-1.348;2023-05-15T00:54:15;15.30;99.90
4687;DHT22;2357;47.316;-1.348;2023-05-15T00:56:42;15.30;99.90
4687;DHT22;2357;47.316;-1.348;2023-05-15T00:59:09;15.30;99.90
4687;DHT22;2357;47.316;-1.348;2023-05-15T01:01:35;15.20;99.90
4687;DHT22;2357;47.316;-1.348;2023-05-15T01:04:01;15.20;99.90
4687;DHT22;2357;47.316;-1.348;2023-05-15T01:06:28;15.10;99.90
4687;DHT22;2357;47.316;-1.348;2023-05-15T01:08:55;15.10;99.90
4687;DHT22;2357;47.316;-1.348;2023-05-15T01:11:24;15.00;99.90
4687;DHT22;2357;47.316;-1.348;2023-05-15T01:13:51;15.00;99.90
4687;DHT22;2357;47.316;-1.348;2023-05-15T01:16:19;14.90;99.90
4687;DHT22;2357;47.316;-1.348;2023-05-15T01:18:45;14.90;99.90
4687;DHT22;2357;47.316;-1.348;2023-05-15T01:21:31;14.80;99.90
4687;DHT22;2357;47.316;-1.348;2023-05-15T01:27:25;14.70;99.90
4687;DHT22;2357;47.316;-1.348;2023-05-15T01:35:33;14.60;99.90
4687;DHT22;2357;47.316;-1.348;2023-05-15T01:38:18;14.70;99.90
4687;DHT22;2357;47.316;-1.348;2023-05-15T01:40:46;14.60;99.90
4687;DHT22;2357;47.316;-1.348;2023-05-15T01:43:17;14.50;99.90
4687;DHT22;2357;47.316;-1.348;2023-05-15T01:45:44;14.40;99.90
4687;DHT22;2357;47.316;-1.348;2023-05-15T01:48:11;14.50;99.90
4687;DHT22;2357;47.316;-1.348;2023-05-15T01:50:39;14.50;99.90
4687;DHT22;2357;47.316;-1.348;2023-05-15T01:53:07;14.30;99.90
4687;DHT22;2357;47.316;-1.348;2023-05-15T01:55:34;14.40;99.90
4687;DHT22;2357;47.316;-1.348;2023-05-15T01:58:00;14.40;99.90
4687;DHT22;2357;47.316;-1.348;2023-05-15T02:00:28;14.30;99.90
4687;DHT22;2357;47.316;-1.348;2023-05-15T02:02:56;14.10;99.90
4687;DHT22;2357;47.316;-1.348;2023-05-15T02:05:22;14.10;99.90
4687;DHT22;2357;47.316;-1.348;2023-05-15T02:07:48;14.20;99.90
4687;DHT22;2357;47.316;-1.348;2023-05-15T02:10:16;14.20;99.90
4687;DHT22;2357;47.316;-1.348;2023-05-15T02:12:43;14.20;99.90
4687;DHT22;2357;47.316;-1.348;2023-05-15T02:15:09;14.20;99.90
4687;DHT22;2357;47.316;-1.348;2023-05-15T02:17:36;14.20;99.90
4687;DHT22;2357;47.316;-1.348;2023-05-15T02:20:02;14.00;99.90
4687;DHT22;2357;47.316;-1.348;2023-05-15T02:22:29;13.90;99.90
4687;DHT22;2357;47.316;-1.348;2023-05-15T02:24:55;13.90;99.90
4687;DHT22;2357;47.316;-1.348;2023-05-15T02:35:58;13.90;99.90
4687;DHT22;2357;47.316;-1.348;2023-05-15T02:38:29;13.90;99.90
4687;DHT22;2357;47.316;-1.348;2023-05-15T02:40:57;14.00;99.90
4687;DHT22;2357;47.316;-1.348;2023-05-15T02:43:24;13.90;99.90
4687;DHT22;2357;47.316;-1.348;2023-05-15T02:45:51;13.90;99.90
4687;DHT22;2357;47.316;-1.348;2023-05-15T02:48:17;13.90;99.90
4687;DHT22;2357;47.316;-1.348;2023-05-15T02:50:43;13.90;99.90
4687;DHT22;2357;47.316;-1.348;2023-05-15T02:53:09;13.60;99.90
4687;DHT22;2357;47.316;-1.348;2023-05-15T02:55:36;13.70;99.90
4687;DHT22;2357;47.316;-1.348;2023-05-15T02:58:02;13.90;99.90
4687;DHT22;2357;47.316;-1.348;2023-05-15T03:00:28;13.90;99.90
4687;DHT22;2357;47.316;-1.348;2023-05-15T03:02:54;14.00;99.90
4687;DHT22;2357;47.316;-1.348;2023-05-15T03:05:20;14.00;99.90
4687;DHT22;2357;47.316;-1.348;2023-05-15T03:07:46;13.80;99.90
4687;DHT22;2357;47.316;-1.348;2023-05-15T03:10:11;13.80;99.90
4687;DHT22;2357;47.316;-1.348;2023-05-15T03:12:37;13.90;99.90
4687;DHT22;2357;47.316;-1.348;2023-05-15T03:15:05;14.00;99.90
4687;DHT22;2357;47.316;-1.348;2023-05-15T03:17:30;13.90;99.90
4687;DHT22;2357;47.316;-1.348;2023-05-15T03:19:56;13.90;99.90
4687;DHT22;2357;47.316;-1.348;2023-05-15T03:22:22;13.90;99.90
4687;DHT22;2357;47.316;-1.348;2023-05-15T03:24:47;13.80;99.90
4687;DHT22;2357;47.316;-1.348;2023-05-15T03:27:14;14.00;99.90
4687;DHT22;2357;47.316;-1.348;2023-05-15T03:29:40;14.00;99.90
4687;DHT22;2357;47.316;-1.348;2023-05-15T03:32:05;13.90;99.90
4687;DHT22;2357;47.316;-1.348;2023-05-15T03:34:31;13.90;99.90
4687;DHT22;2357;47.316;-1.348;2023-05-15T03:36:56;13.80;99.90
4687;DHT22;2357;47.316;-1.348;2023-05-15T03:39:22;13.90;99.90
4687;DHT22;2357;47.316;-1.348;2023-05-15T03:41:48;13.80;99.90
4687;DHT22;2357;47.316;-1.348;2023-05-15T03:44:13;13.90;99.90
4687;DHT22;2357;47.316;-1.348;2023-05-15T03:46:39;13.80;99.90
4687;DHT22;2357;47.316;-1.348;2023-05-15T03:49:05;13.80;99.90
4687;DHT22;2357;47.316;-1.348;2023-05-15T03:51:30;13.80;99.90
4687;DHT22;2357;47.316;-1.348;2023-05-15T03:53:56;13.80;99.90
4687;DHT22;2357;47.316;-1.348;2023-05-15T03:56:22;13.80;99.90
4687;DHT22;2357;47.316;-1.348;2023-05-15T03:58:47;13.80;99.90
4687;DHT22;2357;47.316;-1.348;2023-05-15T04:01:13;13.70;99.90
4687;DHT22;2357;47.316;-1.348;2023-05-15T04:03:38;13.80;99.90
4687;DHT22;2357;47.316;-1.348;2023-05-15T04:06:04;13.80;99.90
4687;DHT22;2357;47.316;-1.348;2023-05-15T04:08:30;13.80;99.90
4687;DHT22;2357;47.316;-1.348;2023-05-15T04:10:56;13.80;99.90
4687;DHT22;2357;47.316;-1.348;2023-05-15T04:13:21;13.80;99.90
4687;DHT22;2357;47.316;-1.348;2023-05-15T04:15:47;13.80;99.90
4687;DHT22;2357;47.316;-1.348;2023-05-15T04:18:13;13.80;99.90
4687;DHT22;2357;47.316;-1.348;2023-05-15T04:20:38;13.80;99.90
4687;DHT22;2357;47.316;-1.348;2023-05-15T04:23:04;13.80;99.90
4687;DHT22;2357;47.316;-1.348;2023-05-15T04:25:30;13.90;99.90
4687;DHT22;2357;47.316;-1.348;2023-05-15T04:27:56;13.90;99.90
4687;DHT22;2357;47.316;-1.348;2023-05-15T04:30:22;13.90;99.90
4687;DHT22;2357;47.316;-1.348;2023-05-15T04:32:48;13.90;99.90
4687;DHT22;2357;47.316;-1.348;2023-05-15T04:35:14;13.80;99.90
4687;DHT22;2357;47.316;-1.348;2023-05-15T04:37:40;13.70;99.90
4687;DHT22;2357;47.316;-1.348;2023-05-15T04:40:07;13.80;99.90
4687;DHT22;2357;47.316;-1.348;2023-05-15T04:42:34;13.70;99.90
4687;DHT22;2357;47.316;-1.348;2023-05-15T04:45:01;13.70;99.90
4687;DHT22;2357;47.316;-1.348;2023-05-15T04:47:27;13.70;99.90
4687;DHT22;2357;47.316;-1.348;2023-05-15T04:49:53;13.50;99.90
4687;DHT22;2357;47.316;-1.348;2023-05-15T04:52:18;13.50;99.90
4687;DHT22;2357;47.316;-1.348;2023-05-15T04:54:44;13.70;99.90
4687;DHT22;2357;47.316;-1.348;2023-05-15T04:57:12;13.80;99.90
4687;DHT22;2357;47.316;-1.348;2023-05-15T04:59:37;13.70;99.90
4687;DHT22;2357;47.316;-1.348;2023-05-15T05:02:03;13.70;99.90
4687;DHT22;2357;47.316;-1.348;2023-05-15T05:04:29;13.80;99.90
4687;DHT22;2357;47.316;-1.348;2023-05-15T05:06:54;13.80;99.90
4687;DHT22;2357;47.316;-1.348;2023-05-15T05:09:20;13.70;99.90
4687;DHT22;2357;47.316;-1.348;2023-05-15T05:11:46;13.80;99.90
4687;DHT22;2357;47.316;-1.348;2023-05-15T05:14:13;13.80;99.90
4687;DHT22;2357;47.316;-1.348;2023-05-15T05:16:39;13.80;99.90
4687;DHT22;2357;47.316;-1.348;2023-05-15T05:19:05;13.80;99.90
4687;DHT22;2357;47.316;-1.348;2023-05-15T05:21:31;13.90;99.90
4687;DHT22;2357;47.316;-1.348;2023-05-15T05:23:57;14.00;99.90
4687;DHT22;2357;47.316;-1.348;2023-05-15T05:26:24;13.90;99.90
4687;DHT22;2357;47.316;-1.348;2023-05-15T05:28:50;13.90;99.90
4687;DHT22;2357;47.316;-1.348;2023-05-15T05:31:16;13.90;99.90
4687;DHT22;2357;47.316;-1.348;2023-05-15T05:33:41;13.80;99.90
4687;DHT22;2357;47.316;-1.348;2023-05-15T05:36:07;13.80;99.90
4687;DHT22;2357;47.316;-1.348;2023-05-15T05:38:34;13.80;99.90
4687;DHT22;2357;47.316;-1.348;2023-05-15T05:41:00;13.90;99.90
4687;DHT22;2357;47.316;-1.348;2023-05-15T05:43:26;14.00;99.90
4687;DHT22;2357;47.316;-1.348;2023-05-15T05:45:52;14.10;99.90
4687;DHT22;2357;47.316;-1.348;2023-05-15T05:48:17;14.10;99.90
4687;DHT22;2357;47.316;-1.348;2023-05-15T05:50:43;14.10;99.90
4687;DHT22;2357;47.316;-1.348;2023-05-15T05:53:09;14.20;99.90
4687;DHT22;2357;47.316;-1.348;2023-05-15T05:55:35;14.20;99.90
4687;DHT22;2357;47.316;-1.348;2023-05-15T05:58:01;14.30;99.90
4687;DHT22;2357;47.316;-1.348;2023-05-15T06:00:27;14.30;99.90
4687;DHT22;2357;47.316;-1.348;2023-05-15T06:02:57;14.20;99.90
4687;DHT22;2357;47.316;-1.348;2023-05-15T06:05:27;14.20;99.90
4687;DHT22;2357;47.316;-1.348;2023-05-15T06:07:53;14.30;99.90
4687;DHT22;2357;47.316;-1.348;2023-05-15T06:10:20;14.40;99.90
4687;DHT22;2357;47.316;-1.348;2023-05-15T06:12:46;14.50;99.90
4687;DHT22;2357;47.316;-1.348;2023-05-15T06:15:12;14.50;99.90
4687;DHT22;2357;47.316;-1.348;2023-05-15T06:17:38;14.60;99.90
4687;DHT22;2357;47.316;-1.348;2023-05-15T06:20:04;14.60;99.90
4687;DHT22;2357;47.316;-1.348;2023-05-15T06:22:36;14.60;99.90
4687;DHT22;2357;47.316;-1.348;2023-05-15T06:25:04;14.70;99.90
4687;DHT22;2357;47.316;-1.348;2023-05-15T06:27:31;14.80;99.90
4687;DHT22;2357;47.316;-1.348;2023-05-15T06:29:56;14.80;99.90
4687;DHT22;2357;47.316;-1.348;2023-05-15T06:32:22;14.70;99.90
4687;DHT22;2357;47.316;-1.348;2023-05-15T06:34:48;14.80;99.90
4687;DHT22;2357;47.316;-1.348;2023-05-15T06:37:13;14.80;99.90
4687;DHT22;2357;47.316;-1.348;2023-05-15T06:39:39;14.80;99.90
4687;DHT22;2357;47.316;-1.348;2023-05-15T06:42:05;14.70;99.90
4687;DHT22;2357;47.316;-1.348;2023-05-15T06:44:31;14.70;99.90
4687;DHT22;2357;47.316;-1.348;2023-05-15T06:46:57;14.70;99.90
4687;DHT22;2357;47.316;-1.348;2023-05-15T06:49:23;14.70;99.90
4687;DHT22;2357;47.316;-1.348;2023-05-15T06:51:49;14.80;99.90
4687;DHT22;2357;47.316;-1.348;2023-05-15T06:54:15;14.60;99.90
4687;DHT22;2357;47.316;-1.348;2023-05-15T06:56:40;14.70;99.90
4687;DHT22;2357;47.316;-1.348;2023-05-15T06:59:06;14.80;99.90
4687;DHT22;2357;47.316;-1.348;2023-05-15T07:01:32;15.10;99.90
4687;DHT22;2357;47.316;-1.348;2023-05-15T07:03:57;15.20;99.90
4687;DHT22;2357;47.316;-1.348;2023-05-15T07:06:24;15.20;99.90
4687;DHT22;2357;47.316;-1.348;2023-05-15T07:08:50;15.00;99.90
4687;DHT22;2357;47.316;-1.348;2023-05-15T07:11:16;15.00;99.90
4687;DHT22;2357;47.316;-1.348;2023-05-15T07:13:41;15.00;99.90
4687;DHT22;2357;47.316;-1.348;2023-05-15T07:16:07;15.10;99.90
4687;DHT22;2357;47.316;-1.348;2023-05-15T07:18:33;15.30;99.90
4687;DHT22;2357;47.316;-1.348;2023-05-15T07:20:58;15.60;99.90
4687;DHT22;2357;47.316;-1.348;2023-05-15T07:23:24;15.60;99.90
4687;DHT22;2357;47.316;-1.348;2023-05-15T07:25:52;15.40;99.90
4687;DHT22;2357;47.316;-1.348;2023-05-15T07:28:18;15.30;99.90
4687;DHT22;2357;47.316;-1.348;2023-05-15T07:30:44;15.50;99.90
4687;DHT22;2357;47.316;-1.348;2023-05-15T07:33:09;15.20;99.90
4687;DHT22;2357;47.316;-1.348;2023-05-15T07:35:35;15.50;99.90
4687;DHT22;2357;47.316;-1.348;2023-05-15T07:38:01;15.60;99.90
4687;DHT22;2357;47.316;-1.348;2023-05-15T07:40:26;15.30;99.90
4687;DHT22;2357;47.316;-1.348;2023-05-15T07:42:52;15.20;99.90
4687;DHT22;2357;47.316;-1.348;2023-05-15T07:45:18;15.10;99.90
4687;DHT22;2357;47.316;-1.348;2023-05-15T07:47:45;15.00;99.90
4687;DHT22;2357;47.316;-1.348;2023-05-15T07:50:11;15.30;99.90
4687;DHT22;2357;47.316;-1.348;2023-05-15T07:52:37;15.40;99.90
4687;DHT22;2357;47.316;-1.348;2023-05-15T07:55:03;15.50;99.90
4687;DHT22;2357;47.316;-1.348;2023-05-15T07:57:29;15.60;99.90
4687;DHT22;2357;47.316;-1.348;2023-05-15T07:59:56;15.60;99.90
4687;DHT22;2357;47.316;-1.348;2023-05-15T08:02:22;15.60;99.90
4687;DHT22;2357;47.316;-1.348;2023-05-15T08:04:47;15.60;99.90
4687;DHT22;2357;47.316;-1.348;2023-05-15T08:07:13;15.50;99.90
4687;DHT22;2357;47.316;-1.348;2023-05-15T08:09:39;15.60;99.90
4687;DHT22;2357;47.316;-1.348;2023-05-15T08:12:15;15.60;99.90
4687;DHT22;2357;47.316;-1.348;2023-05-15T08:14:50;15.50;99.90
4687;DHT22;2357;47.316;-1.348;2023-05-15T08:17:16;15.40;99.90
4687;DHT22;2357;47.316;-1.348;2023-05-15T08:19:42;15.20;99.90
4687;DHT22;2357;47.316;-1.348;2023-05-15T08:22:08;15.30;99.90
4687;DHT22;2357;47.316;-1.348;2023-05-15T08:24:33;15.30;99.90
4687;DHT22;2357;47.316;-1.348;2023-05-15T08:26:59;15.30;99.90
4687;DHT22;2357;47.316;-1.348;2023-05-15T08:29:25;15.40;99.90
4687;DHT22;2357;47.316;-1.348;2023-05-15T08:31:51;15.30;99.90
4687;DHT22;2357;47.316;-1.348;2023-05-15T08:34:17;15.50;99.90
4687;DHT22;2357;47.316;-1.348;2023-05-15T08:36:43;15.40;99.90
4687;DHT22;2357;47.316;-1.348;2023-05-15T08:39:09;15.40;99.90
4687;DHT22;2357;47.316;-1.348;2023-05-15T08:44:32;15.50;99.90
4687;DHT22;2357;47.316;-1.348;2023-05-15T08:46:58;15.50;99.90
4687;DHT22;2357;47.316;-1.348;2023-05-15T08:52:17;15.50;99.90
4687;DHT22;2357;47.316;-1.348;2023-05-15T08:54:42;15.70;99.90
4687;DHT22;2357;47.316;-1.348;2023-05-15T08:57:08;15.70;99.90
4687;DHT22;2357;47.316;-1.348;2023-05-15T08:59:36;15.90;99.90
4687;DHT22;2357;47.316;-1.348;2023-05-15T09:02:02;15.90;99.90
4687;DHT22;2357;47.316;-1.348;2023-05-15T09:04:28;15.70;99.90
4687;DHT22;2357;47.316;-1.348;2023-05-15T09:06:53;16.10;99.90
4687;DHT22;2357;47.316;-1.348;2023-05-15T09:09:20;16.20;99.90
4687;DHT22;2357;47.316;-1.348;2023-05-15T09:11:47;16.20;99.90
4687;DHT22;2357;47.316;-1.348;2023-05-15T09:14:13;16.60;99.90
4687;DHT22;2357;47.316;-1.348;2023-05-15T09:16:39;16.70;99.90
4687;DHT22;2357;47.316;-1.348;2023-05-15T09:19:06;16.80;99.90
4687;DHT22;2357;47.316;-1.348;2023-05-15T09:21:32;16.90;99.90
4687;DHT22;2357;47.316;-1.348;2023-05-15T09:24:20;16.90;99.90
4687;DHT22;2357;47.316;-1.348;2023-05-15T09:27:03;16.80;99.90
4687;DHT22;2357;47.316;-1.348;2023-05-15T09:29:31;17.00;99.90
4687;DHT22;2357;47.316;-1.348;2023-05-15T09:32:05;17.20;99.90
4687;DHT22;2357;47.316;-1.348;2023-05-15T09:34:32;17.10;99.90
4687;DHT22;2357;47.316;-1.348;2023-05-15T09:37:00;17.20;99.90
4687;DHT22;2357;47.316;-1.348;2023-05-15T09:39:26;17.30;99.90
4687;DHT22;2357;47.316;-1.348;2023-05-15T09:41:52;17.30;99.90
4687;DHT22;2357;47.316;-1.348;2023-05-15T09:44:23;17.40;99.90
4687;DHT22;2357;47.316;-1.348;2023-05-15T09:46:49;17.50;99.90
4687;DHT22;2357;47.316;-1.348;2023-05-15T09:49:16;17.40;99.90
4687;DHT22;2357;47.316;-1.348;2023-05-15T09:51:42;17.50;99.90
4687;DHT22;2357;47.316;-1.348;2023-05-15T09:54:17;17.60;99.90
4687;DHT22;2357;47.316;-1.348;2023-05-15T09:56:44;17.30;99.90
4687;DHT22;2357;47.316;-1.348;2023-05-15T09:59:14;17.20;99.90
4687;DHT22;2357;47.316;-1.348;2023-05-15T10:01:44;17.30;99.90
4687;DHT22;2357;47.316;-1.348;2023-05-15T10:04:11;16.90;99.90
4687;DHT22;2357;47.316;-1.348;2023-05-15T10:06:42;17.00;99.90
4687;DHT22;2357;47.316;-1.348;2023-05-15T10:09:08;17.00;99.90
4687;DHT22;2357;47.316;-1.348;2023-05-15T10:11:37;17.00;99.90
4687;DHT22;2357;47.316;-1.348;2023-05-15T10:14:04;17.00;99.90
4687;DHT22;2357;47.316;-1.348;2023-05-15T10:16:33;16.90;99.90
4687;DHT22;2357;47.316;-1.348;2023-05-15T10:19:04;17.20;99.90
4687;DHT22;2357;47.316;-1.348;2023-05-15T10:21:32;17.40;99.90
4687;DHT22;2357;47.316;-1.348;2023-05-15T10:23:59;17.20;99.90
4687;DHT22;2357;47.316;-1.348;2023-05-15T10:26:39;17.30;99.90
4687;DHT22;2357;47.316;-1.348;2023-05-15T10:31:33;17.60;99.90
4687;DHT22;2357;47.316;-1.348;2023-05-15T10:34:00;17.60;99.90
4687;DHT22;2357;47.316;-1.348;2023-05-15T10:36:26;17.80;99.90
4687;DHT22;2357;47.316;-1.348;2023-05-15T10:38:52;17.60;99.90
4687;DHT22;2357;47.316;-1.348;2023-05-15T10:41:20;17.70;99.90
4687;DHT22;2357;47.316;-1.348;2023-05-15T10:43:48;17.90;99.90
4687;DHT22;2357;47.316;-1.348;2023-05-15T10:46:15;17.80;99.90
4687;DHT22;2357;47.316;-1.348;2023-05-15T10:48:41;17.90;99.90
4687;DHT22;2357;47.316;-1.348;2023-05-15T10:51:26;17.90;99.90
4687;DHT22;2357;47.316;-1.348;2023-05-15T10:53:53;17.70;99.90
4687;DHT22;2357;47.316;-1.348;2023-05-15T10:56:20;17.30;99.90
4687;DHT22;2357;47.316;-1.348;2023-05-15T10:58:50;17.40;99.90
4687;DHT22;2357;47.316;-1.348;2023-05-15T11:01:30;17.40;99.90
4687;DHT22;2357;47.316;-1.348;2023-05-15T11:04:16;17.10;99.90
4687;DHT22;2357;47.316;-1.348;2023-05-15T11:06:42;17.20;99.90
4687;DHT22;2357;47.316;-1.348;2023-05-15T11:11:59;17.10;99.90
4687;DHT22;2357;47.316;-1.348;2023-05-15T11:14:26;17.10;99.90
4687;DHT22;2357;47.316;-1.348;2023-05-15T11:27:24;17.40;99.90
4687;DHT22;2357;47.316;-1.348;2023-05-15T11:30:11;17.40;99.90
4687;DHT22;2357;47.316;-1.348;2023-05-15T11:32:43;17.00;99.90
4687;DHT22;2357;47.316;-1.348;2023-05-15T11:35:11;17.10;99.90
4687;DHT22;2357;47.316;-1.348;2023-05-15T11:37:57;17.10;99.90
4687;DHT22;2357;47.316;-1.348;2023-05-15T11:40:28;17.20;99.90
4687;DHT22;2357;47.316;-1.348;2023-05-15T11:43:02;17.20;99.90
4687;DHT22;2357;47.316;-1.348;2023-05-15T11:45:38;17.20;99.90
4687;DHT22;2357;47.316;-1.348;2023-05-15T11:48:06;17.10;99.90
4687;DHT22;2357;47.316;-1.348;2023-05-15T11:50:33;17.20;99.90
4687;DHT22;2357;47.316;-1.348;2023-05-15T11:53:06;17.10;99.90
4687;DHT22;2357;47.316;-1.348;2023-05-15T11:55:33;17.00;99.90
4687;DHT22;2357;47.316;-1.348;2023-05-15T11:58:00;16.90;99.90
4687;DHT22;2357;47.316;-1.348;2023-05-15T12:00:26;16.90;99.90
4687;DHT22;2357;47.316;-1.348;2023-05-15T12:02:51;16.80;99.90
4687;DHT22;2357;47.316;-1.348;2023-05-15T12:05:17;17.10;99.90
4687;DHT22;2357;47.316;-1.348;2023-05-15T12:07:43;17.20;99.90
4687;DHT22;2357;47.316;-1.348;2023-05-15T12:10:10;17.20;99.90
4687;DHT22;2357;47.316;-1.348;2023-05-15T12:12:43;17.10;99.90
4687;DHT22;2357;47.316;-1.348;2023-05-15T12:15:11;17.20;99.90
4687;DHT22;2357;47.316;-1.348;2023-05-15T12:17:39;17.30;99.90
4687;DHT22;2357;47.316;-1.348;2023-05-15T12:20:10;17.40;99.90
4687;DHT22;2357;47.316;-1.348;2023-05-15T12:22:39;17.30;99.90
4687;DHT22;2357;47.316;-1.348;2023-05-15T12:25:08;17.30;99.90
4687;DHT22;2357;47.316;-1.348;2023-05-15T12:27:39;17.30;99.90
4687;DHT22;2357;47.316;-1.348;2023-05-15T12:30:06;17.30;99.90
4687;DHT22;2357;47.316;-1.348;2023-05-15T12:32:33;17.30;99.90
4687;DHT22;2357;47.316;-1.348;2023-05-15T12:35:00;17.40;99.90
4687;DHT22;2357;47.316;-1.348;2023-05-15T12:37:26;17.50;99.90
4687;DHT22;2357;47.316;-1.348;2023-05-15T12:39:59;17.50;99.90
4687;DHT22;2357;47.316;-1.348;2023-05-15T12:42:24;17.50;99.90
4687;DHT22;2357;47.316;-1.348;2023-05-15T12:44:51;17.50;99.90
4687;DHT22;2357;47.316;-1.348;2023-05-15T12:47:26;17.70;99.90
4687;DHT22;2357;47.316;-1.348;2023-05-15T12:49:59;17.50;99.90
4687;DHT22;2357;47.316;-1.348;2023-05-15T12:52:27;17.60;99.90
4687;DHT22;2357;47.316;-1.348;2023-05-15T12:54:53;17.80;99.90
4687;DHT22;2357;47.316;-1.348;2023-05-15T12:57:19;17.70;99.90
4687;DHT22;2357;47.316;-1.348;2023-05-15T12:59:45;17.70;99.90
4687;DHT22;2357;47.316;-1.348;2023-05-15T13:02:12;17.50;99.90
4687;DHT22;2357;47.316;-1.348;2023-05-15T13:04:38;17.50;99.90
4687;DHT22;2357;47.316;-1.348;2023-05-15T13:07:04;17.50;99.90
4687;DHT22;2357;47.316;-1.348;2023-05-15T13:09:30;17.40;99.90
4687;DHT22;2357;47.316;-1.348;2023-05-15T13:12:00;17.10;99.90
4687;DHT22;2357;47.316;-1.348;2023-05-15T13:14:26;16.80;99.90
4687;DHT22;2357;47.316;-1.348;2023-05-15T13:16:58;16.60;99.90
4687;DHT22;2357;47.316;-1.348;2023-05-15T13:19:25;16.40;99.90
4687;DHT22;2357;47.316;-1.348;2023-05-15T13:21:50;15.90;99.90
4687;DHT22;2357;47.316;-1.348;2023-05-15T13:24:16;15.60;99.90
4687;DHT22;2357;47.316;-1.348;2023-05-15T13:26:42;15.60;99.90
4687;DHT22;2357;47.316;-1.348;2023-05-15T13:29:07;15.60;99.90
4687;DHT22;2357;47.316;-1.348;2023-05-15T13:31:33;15.60;99.90
4687;DHT22;2357;47.316;-1.348;2023-05-15T13:33:59;15.60;99.90
4687;DHT22;2357;47.316;-1.348;2023-05-15T13:36:24;15.60;99.90
4687;DHT22;2357;47.316;-1.348;2023-05-15T13:38:50;15.50;99.90
4687;DHT22;2357;47.316;-1.348;2023-05-15T13:41:15;15.40;99.90
4687;DHT22;2357;47.316;-1.348;2023-05-15T13:43:41;15.50;99.90
4687;DHT22;2357;47.316;-1.348;2023-05-15T13:46:07;15.40;99.90
4687;DHT22;2357;47.316;-1.348;2023-05-15T13:48:33;15.40;99.90
4687;DHT22;2357;47.316;-1.348;2023-05-15T13:50:58;15.50;99.90
4687;DHT22;2357;47.316;-1.348;2023-05-15T13:53:24;15.40;99.90
4687;DHT22;2357;47.316;-1.348;2023-05-15T13:55:50;15.40;99.90
4687;DHT22;2357;47.316;-1.348;2023-05-15T13:58:15;15.50;99.90
4687;DHT22;2357;47.316;-1.348;2023-05-15T14:00:42;15.50;99.90
4687;DHT22;2357;47.316;-1.348;2023-05-15T14:03:08;15.60;99.90
4687;DHT22;2357;47.316;-1.348;2023-05-15T14:05:34;15.70;99.90
4687;DHT22;2357;47.316;-1.348;2023-05-15T14:07:59;15.60;99.90
4687;DHT22;2357;47.316;-1.348;2023-05-15T14:10:25;15.60;99.90
4687;DHT22;2357;47.316;-1.348;2023-05-15T14:12:51;15.50;99.90
4687;DHT22;2357;47.316;-1.348;2023-05-15T14:15:17;15.40;99.90
4687;DHT22;2357;47.316;-1.348;2023-05-15T14:17:42;15.20;99.90
4687;DHT22;2357;47.316;-1.348;2023-05-15T14:20:09;15.30;99.90
4687;DHT22;2357;47.316;-1.348;2023-05-15T14:22:36;15.10;99.90
4687;DHT22;2357;47.316;-1.348;2023-05-15T14:25:03;15.10;99.90
4687;DHT22;2357;47.316;-1.348;2023-05-15T14:27:29;15.10;99.90
4687;DHT22;2357;47.316;-1.348;2023-05-15T14:29:55;15.30;99.90
4687;DHT22;2357;47.316;-1.348;2023-05-15T14:32:21;15.20;99.90
4687;DHT22;2357;47.316;-1.348;2023-05-15T14:34:47;15.40;99.90
4687;DHT22;2357;47.316;-1.348;2023-05-15T14:37:13;15.40;99.90
4687;DHT22;2357;47.316;-1.348;2023-05-15T14:39:38;15.30;99.90
4687;DHT22;2357;47.316;-1.348;2023-05-15T14:42:05;15.20;99.90
4687;DHT22;2357;47.316;-1.348;2023-05-15T14:44:31;15.20;99.90
4687;DHT22;2357;47.316;-1.348;2023-05-15T14:47:12;15.20;99.90
4687;DHT22;2357;47.316;-1.348;2023-05-15T14:49:38;15.20;99.90
4687;DHT22;2357;47.316;-1.348;2023-05-15T14:52:07;15.30;99.90
4687;DHT22;2357;47.316;-1.348;2023-05-15T14:54:33;15.40;99.90
4687;DHT22;2357;47.316;-1.348;2023-05-15T14:57:00;15.40;99.90
4687;DHT22;2357;47.316;-1.348;2023-05-15T14:59:29;15.40;99.90
4687;DHT22;2357;47.316;-1.348;2023-05-15T15:01:55;15.50;99.90
4687;DHT22;2357;47.316;-1.348;2023-05-15T15:04:20;15.50;99.90
4687;DHT22;2357;47.316;-1.348;2023-05-15T15:06:46;15.60;99.90
4687;DHT22;2357;47.316;-1.348;2023-05-15T15:09:12;15.80;99.90
4687;DHT22;2357;47.316;-1.348;2023-05-15T15:11:38;16.00;99.90
4687;DHT22;2357;47.316;-1.348;2023-05-15T15:14:03;16.00;99.90
4687;DHT22;2357;47.316;-1.348;2023-05-15T15:16:29;16.10;99.90
4687;DHT22;2357;47.316;-1.348;2023-05-15T15:18:54;16.00;99.90
4687;DHT22;2357;47.316;-1.348;2023-05-15T15:21:20;16.00;99.90
4687;DHT22;2357;47.316;-1.348;2023-05-15T15:23:46;15.90;99.90
4687;DHT22;2357;47.316;-1.348;2023-05-15T15:26:13;15.70;99.90
4687;DHT22;2357;47.316;-1.348;2023-05-15T15:28:38;15.60;99.90
4687;DHT22;2357;47.316;-1.348;2023-05-15T15:31:04;15.60;99.90
4687;DHT22;2357;47.316;-1.348;2023-05-15T15:33:30;15.60;99.90
4687;DHT22;2357;47.316;-1.348;2023-05-15T15:35:56;15.50;99.90
4687;DHT22;2357;47.316;-1.348;2023-05-15T15:38:21;15.50;99.90
4687;DHT22;2357;47.316;-1.348;2023-05-15T15:40:47;15.50;99.90
4687;DHT22;2357;47.316;-1.348;2023-05-15T15:43:13;15.50;99.90
4687;DHT22;2357;47.316;-1.348;2023-05-15T15:45:38;15.30;99.90
4687;DHT22;2357;47.316;-1.348;2023-05-15T15:48:04;15.30;99.90
4687;DHT22;2357;47.316;-1.348;2023-05-15T15:50:30;15.20;99.90
4687;DHT22;2357;47.316;-1.348;2023-05-15T15:52:55;15.20;99.90
4687;DHT22;2357;47.316;-1.348;2023-05-15T15:55:21;15.30;99.90
4687;DHT22;2357;47.316;-1.348;2023-05-15T15:57:46;15.30;99.90
4687;DHT22;2357;47.316;-1.348;2023-05-15T16:00:12;15.40;99.90
4687;DHT22;2357;47.316;-1.348;2023-05-15T16:02:39;15.50;99.90
4687;DHT22;2357;47.316;-1.348;2023-05-15T16:05:05;15.40;99.90
4687;DHT22;2357;47.316;-1.348;2023-05-15T16:07:32;15.40;99.90
4687;DHT22;2357;47.316;-1.348;2023-05-15T16:09:59;15.30;99.90
4687;DHT22;2357;47.316;-1.348;2023-05-15T16:12:25;15.30;99.90
4687;DHT22;2357;47.316;-1.348;2023-05-15T16:14:52;15.10;99.90
4687;DHT22;2357;47.316;-1.348;2023-05-15T16:17:17;15.10;99.90
4687;DHT22;2357;47.316;-1.348;2023-05-15T16:19:43;15.20;99.90
4687;DHT22;2357;47.316;-1.348;2023-05-15T16:22:08;15.10;99.90